createdAt,value
2022-10-20T00:00:38.701Z,-2.38
2022-10-20T00:01:38.785Z,-2.35
2022-10-20T00:02:39.197Z,-2.33
2022-10-20T00:03:38.668Z,-2.33
2022-10-20T00:04:38.664Z,-2.36
2022-10-20T00:05:38.651Z,-2.38
2022-10-20T00:06:38.641Z,-2.36
2022-10-20T00:07:38.661Z,-2.35
2022-10-20T00:08:38.657Z,-2.36
2022-10-20T00:09:38.611Z,-2.35
2022-10-20T00:10:38.591Z,-2.35
2022-10-20T00:11:38.592Z,-2.33
2022-10-20T00:12:38.903Z,-2.29
2022-10-20T00:13:38.610Z,-2.28
2022-10-20T00:14:38.562Z,-2.28
2022-10-20T00:15:38.552Z,-2.26
2022-10-20T00:16:38.541Z,-2.26
2022-10-20T00:17:38.537Z,-2.28
2022-10-20T00:18:38.521Z,-2.26
2022-10-20T00:19:38.993Z,-2.35
2022-10-20T00:20:38.500Z,-2.40
2022-10-20T00:21:38.493Z,-2.43
2022-10-20T00:22:38.742Z,-2.45
2022-10-20T00:23:38.471Z,-2.48
2022-10-20T00:24:38.462Z,-2.54
2022-10-20T00:25:38.485Z,-2.56
2022-10-20T00:26:38.435Z,-2.54
2022-10-20T00:27:38.433Z,-2.53
2022-10-20T00:28:38.421Z,-2.56
2022-10-20T00:29:38.414Z,-2.60
2022-10-20T00:30:38.407Z,-2.58
2022-10-20T00:31:38.433Z,-2.63
2022-10-20T00:32:38.677Z,-2.63
2022-10-20T00:33:38.377Z,-2.63
2022-10-20T00:34:38.364Z,-2.63
2022-10-20T00:35:38.366Z,-2.66
2022-10-20T00:36:38.351Z,-2.68
2022-10-20T00:37:38.374Z,-2.71
2022-10-20T00:38:38.314Z,-2.74
2022-10-20T00:39:38.316Z,-2.74
2022-10-20T00:40:38.305Z,-2.74
2022-10-20T00:41:38.292Z,-2.72
2022-10-20T00:42:38.538Z,-2.71
2022-10-20T00:43:38.315Z,-2.68
2022-10-20T00:44:38.266Z,-2.72
2022-10-20T00:45:38.255Z,-2.72
2022-10-20T00:46:38.234Z,-2.72
2022-10-20T00:47:38.299Z,-2.74
2022-10-20T00:48:38.225Z,-2.75
2022-10-20T00:49:38.254Z,-2.78
2022-10-20T00:50:38.204Z,-2.82
2022-10-20T00:51:38.196Z,-2.86
2022-10-20T00:52:38.396Z,-2.81
2022-10-20T00:53:38.176Z,-2.82
2022-10-20T00:54:38.165Z,-2.81
2022-10-20T00:55:38.185Z,-2.78
2022-10-20T00:56:38.144Z,-2.78
2022-10-20T00:57:38.407Z,-2.81
2022-10-20T00:58:38.126Z,-2.78
2022-10-20T00:59:38.117Z,-2.76
2022-10-20T01:00:38.107Z,-2.78
2022-10-20T01:01:38.209Z,-2.75
2022-10-20T01:02:38.087Z,-2.72
2022-10-20T01:03:38.076Z,-2.72
2022-10-20T01:04:38.068Z,-2.76
2022-10-20T01:05:38.056Z,-2.89
2022-10-20T01:06:38.045Z,-2.97
2022-10-20T01:07:38.293Z,-2.96
2022-10-20T01:08:38.059Z,-2.90
2022-10-20T01:09:38.016Z,-2.87
2022-10-20T01:10:38.008Z,-2.89
2022-10-20T01:11:37.996Z,-2.93
2022-10-20T01:12:37.987Z,-2.93
2022-10-20T01:13:38.016Z,-2.92
2022-10-20T01:14:37.980Z,-2.89
2022-10-20T01:15:37.957Z,-2.87
2022-10-20T01:16:37.951Z,-2.86
2022-10-20T01:17:38.236Z,-2.86
2022-10-20T01:18:37.927Z,-2.85
2022-10-20T01:19:37.965Z,-2.86
2022-10-20T01:20:37.917Z,-2.89
2022-10-20T01:21:37.906Z,-2.92
2022-10-20T01:22:37.886Z,-2.93
2022-10-20T01:23:37.894Z,-2.94
2022-10-20T01:24:37.870Z,-2.92
2022-10-20T01:25:37.908Z,-2.93
2022-10-20T01:26:37.848Z,-2.92
2022-10-20T01:27:38.245Z,-2.90
2022-10-20T01:28:37.837Z,-2.90
2022-10-20T01:29:37.838Z,-2.87
2022-10-20T01:30:37.808Z,-2.89
2022-10-20T01:31:37.861Z,-2.85
2022-10-20T01:32:37.789Z,-2.82
2022-10-20T01:33:37.791Z,-2.82
2022-10-20T01:34:37.778Z,-2.85
2022-10-20T01:35:37.768Z,-2.82
2022-10-20T01:36:37.749Z,-2.86
2022-10-20T01:37:48.901Z,-2.89
2022-10-20T01:38:38.745Z,-2.90
2022-10-20T01:39:37.730Z,-2.89
2022-10-20T01:40:37.720Z,-2.90
2022-10-20T01:41:37.710Z,-2.94
2022-10-20T01:42:37.710Z,-2.99
2022-10-20T01:43:37.733Z,-2.96
2022-10-20T01:44:37.678Z,-2.94
2022-10-20T01:45:37.670Z,-2.94
2022-10-20T01:46:37.660Z,-2.97
2022-10-20T01:47:38.048Z,-3.00
2022-10-20T01:48:37.636Z,-3.00
2022-10-20T01:49:37.678Z,-2.99
2022-10-20T01:50:37.626Z,-2.97
2022-10-20T01:51:37.669Z,-2.97
2022-10-20T01:52:38.027Z,-2.96
2022-10-20T01:53:37.591Z,-3.02
2022-10-20T01:54:37.580Z,-3.10
2022-10-20T01:55:37.610Z,-3.13
2022-10-20T01:56:37.559Z,-3.11
2022-10-20T01:57:37.548Z,-3.10
2022-10-20T01:58:37.538Z,-3.11
2022-10-20T01:59:37.531Z,-3.15
2022-10-20T02:00:37.525Z,-3.14
2022-10-20T02:01:37.589Z,-3.11
2022-10-20T02:02:37.934Z,-3.13
2022-10-20T02:03:37.491Z,-3.13
2022-10-20T02:04:37.481Z,-3.14
2022-10-20T02:05:37.476Z,-3.11
2022-10-20T02:06:37.461Z,-3.10
2022-10-20T02:07:37.490Z,-3.11
2022-10-20T02:08:37.460Z,-3.15
2022-10-20T02:09:37.431Z,-3.22
2022-10-20T02:10:37.420Z,-3.22
2022-10-20T02:11:37.412Z,-3.23
2022-10-20T02:12:37.845Z,-3.26
2022-10-20T02:13:37.434Z,-3.28
2022-10-20T02:14:37.380Z,-3.32
2022-10-20T02:15:37.372Z,-3.33
2022-10-20T02:16:37.364Z,-3.33
2022-10-20T02:17:37.362Z,-3.29
2022-10-20T02:18:37.342Z,-3.25
2022-10-20T02:19:37.372Z,-3.23
2022-10-20T02:20:37.327Z,-3.18
2022-10-20T02:21:37.320Z,-3.13
2022-10-20T02:22:37.781Z,-3.10
2022-10-20T02:23:37.440Z,-3.08
2022-10-20T02:24:37.282Z,-3.07
2022-10-20T02:25:37.313Z,-3.07
2022-10-20T02:26:37.274Z,-3.04
2022-10-20T02:27:37.254Z,-3.04
2022-10-20T02:28:37.243Z,-3.02
2022-10-20T02:29:37.246Z,-2.99
2022-10-20T02:30:37.233Z,-3.00
2022-10-20T02:31:37.280Z,-2.99
2022-10-20T02:32:37.561Z,-3.00
2022-10-20T02:33:37.195Z,-3.05
2022-10-20T02:34:40.947Z,-3.08
2022-10-20T02:35:38.186Z,-3.13
2022-10-20T02:36:37.174Z,-3.22
2022-10-20T02:37:37.492Z,-3.28
2022-10-20T02:38:37.155Z,-3.28
2022-10-20T02:39:37.150Z,-3.26
2022-10-20T02:40:37.133Z,-3.25
2022-10-20T02:41:37.116Z,-3.29
2022-10-20T02:42:37.114Z,-3.32
2022-10-20T02:43:37.136Z,-3.33
2022-10-20T02:44:37.094Z,-3.31
2022-10-20T02:45:37.085Z,-3.29
2022-10-20T02:46:37.075Z,-3.28
2022-10-20T02:47:37.449Z,-3.25
2022-10-20T02:48:37.055Z,-3.18
2022-10-20T02:49:37.079Z,-3.14
2022-10-20T02:50:37.033Z,-3.11
2022-10-20T02:51:37.025Z,-3.08
2022-10-20T02:52:37.017Z,-3.05
2022-10-20T02:53:37.005Z,-3.05
2022-10-20T02:54:37.000Z,-3.02
2022-10-20T02:55:37.029Z,-2.99
2022-10-20T02:56:36.985Z,-2.96
2022-10-20T02:57:37.228Z,-2.94
2022-10-20T02:58:36.964Z,-2.96
2022-10-20T02:59:36.949Z,-2.94
2022-10-20T03:00:36.947Z,-2.94
2022-10-20T03:01:37.002Z,-2.97
2022-10-20T03:02:36.919Z,-2.99
2022-10-20T03:03:36.907Z,-2.97
2022-10-20T03:04:36.907Z,-2.97
2022-10-20T03:05:36.898Z,-3.00
2022-10-20T03:06:36.887Z,-3.00
2022-10-20T03:07:37.181Z,-2.99
2022-10-20T03:08:36.948Z,-2.97
2022-10-20T03:09:36.856Z,-2.96
2022-10-20T03:10:36.847Z,-2.92
2022-10-20T03:11:36.835Z,-2.90
2022-10-20T03:12:36.827Z,-2.94
2022-10-20T03:13:36.850Z,-3.00
2022-10-20T03:14:36.799Z,-2.99
2022-10-20T03:15:36.788Z,-2.99
2022-10-20T03:16:36.787Z,-2.97
2022-10-20T03:17:36.943Z,-2.97
2022-10-20T03:18:36.767Z,-2.96
2022-10-20T03:19:36.788Z,-2.94
2022-10-20T03:20:36.748Z,-2.94
2022-10-20T03:21:36.737Z,-2.93
2022-10-20T03:22:36.735Z,-2.94
2022-10-20T03:23:36.823Z,-2.93
2022-10-20T03:24:36.718Z,-2.92
2022-10-20T03:25:36.730Z,-2.92
2022-10-20T03:26:36.698Z,-2.92
2022-10-20T03:27:37.063Z,-2.97
2022-10-20T03:28:36.671Z,-3.07
2022-10-20T03:29:36.671Z,-3.14
2022-10-20T03:30:36.648Z,-3.17
2022-10-20T03:31:36.809Z,-3.18
2022-10-20T03:32:36.881Z,-3.20
2022-10-20T03:33:36.620Z,-3.15
2022-10-20T03:34:36.618Z,-3.13
2022-10-20T03:35:36.601Z,-3.14
2022-10-20T03:36:36.596Z,-3.15
2022-10-20T03:37:36.618Z,-3.15
2022-10-20T03:38:36.580Z,-3.17
2022-10-20T03:39:36.559Z,-3.17
2022-10-20T03:40:36.558Z,-3.17
2022-10-20T03:41:36.541Z,-3.15
2022-10-20T03:42:36.723Z,-3.14
2022-10-20T03:43:36.561Z,-3.13
2022-10-20T03:44:36.519Z,-3.11
2022-10-20T03:45:36.503Z,-3.11
2022-10-20T03:46:36.500Z,-3.14
2022-10-20T03:47:36.481Z,-3.23
2022-10-20T03:48:36.487Z,-3.31
2022-10-20T03:49:36.500Z,-3.43
2022-10-20T03:50:36.452Z,-3.44
2022-10-20T03:51:36.448Z,-3.39
2022-10-20T03:52:36.738Z,-3.38
2022-10-20T03:53:36.431Z,-3.41
2022-10-20T03:54:36.422Z,-3.44
2022-10-20T03:55:36.448Z,-3.49
2022-10-20T03:56:36.404Z,-3.47
2022-10-20T03:57:36.668Z,-3.43
2022-10-20T03:58:36.382Z,-3.38
2022-10-20T03:59:36.371Z,-3.36
2022-10-20T04:00:36.361Z,-3.44
2022-10-20T04:01:36.400Z,-3.44
2022-10-20T04:02:36.468Z,-3.41
2022-10-20T04:03:36.338Z,-3.36
2022-10-20T04:04:36.320Z,-3.39
2022-10-20T04:05:36.310Z,-3.39
2022-10-20T04:06:36.303Z,-3.36
2022-10-20T04:07:36.331Z,-3.35
2022-10-20T04:08:36.327Z,-3.36
2022-10-20T04:09:36.273Z,-3.43
2022-10-20T04:10:36.268Z,-3.47
2022-10-20T04:11:36.253Z,-3.51
2022-10-20T04:12:36.360Z,-3.50
2022-10-20T04:13:36.269Z,-3.44
2022-10-20T04:14:36.232Z,-3.41
2022-10-20T04:15:36.220Z,-3.41
2022-10-20T04:16:36.213Z,-3.39
2022-10-20T04:17:36.260Z,-3.36
2022-10-20T04:18:36.193Z,-3.35
2022-10-20T04:19:36.213Z,-3.33
2022-10-20T04:20:38.261Z,-3.33
2022-10-20T04:21:36.154Z,-3.32
2022-10-20T04:22:36.393Z,-3.32
2022-10-20T04:23:36.142Z,-3.26
2022-10-20T04:24:36.143Z,-3.23
2022-10-20T04:25:36.158Z,-3.23
2022-10-20T04:26:36.115Z,-3.23
2022-10-20T04:27:36.343Z,-3.23
2022-10-20T04:28:36.093Z,-3.28
2022-10-20T04:29:36.083Z,-3.32
2022-10-20T04:30:36.072Z,-3.33
2022-10-20T04:31:36.095Z,-3.36
2022-10-20T04:32:37.880Z,-3.39
2022-10-20T04:33:36.043Z,-3.43
2022-10-20T04:34:36.035Z,-3.44
2022-10-20T04:35:36.074Z,-3.43
2022-10-20T04:36:36.016Z,-3.46
2022-10-20T04:37:36.219Z,-3.46
2022-10-20T04:38:35.998Z,-3.43
2022-10-20T04:39:35.987Z,-3.39
2022-10-20T04:40:35.974Z,-3.38
2022-10-20T04:41:35.964Z,-3.35
2022-10-20T04:42:35.963Z,-3.31
2022-10-20T04:43:35.985Z,-3.32
2022-10-20T04:44:35.941Z,-3.31
2022-10-20T04:45:35.925Z,-3.29
2022-10-20T04:46:35.919Z,-3.32
2022-10-20T04:47:36.208Z,-3.33
2022-10-20T04:48:35.910Z,-3.35
2022-10-20T04:49:35.926Z,-3.38
2022-10-20T04:50:35.885Z,-3.39
2022-10-20T04:51:35.866Z,-3.36
2022-10-20T04:52:35.865Z,-3.33
2022-10-20T04:53:35.854Z,-3.32
2022-10-20T04:54:35.853Z,-3.29
2022-10-20T04:55:35.872Z,-3.26
2022-10-20T04:56:35.826Z,-3.20
2022-10-20T04:57:36.280Z,-3.18
2022-10-20T04:58:35.815Z,-3.14
2022-10-20T04:59:35.798Z,-3.11
2022-10-20T05:00:35.788Z,-3.05
2022-10-20T05:01:35.839Z,-3.04
2022-10-20T05:02:35.767Z,-3.02
2022-10-20T05:03:35.757Z,-2.97
2022-10-20T05:04:35.758Z,-2.96
2022-10-20T05:05:35.737Z,-2.93
2022-10-20T05:06:35.727Z,-2.92
2022-10-20T05:07:35.986Z,-2.87
2022-10-20T05:08:35.741Z,-2.86
2022-10-20T05:09:35.698Z,-2.79
2022-10-20T05:10:36.712Z,-2.78
2022-10-20T05:11:35.680Z,-2.74
2022-10-20T05:12:35.822Z,-2.71
2022-10-20T05:13:35.688Z,-2.69
2022-10-20T05:14:35.649Z,-2.68
2022-10-20T05:15:35.646Z,-2.64
2022-10-20T05:16:35.638Z,-2.63
2022-10-20T05:17:35.619Z,-2.58
2022-10-20T05:18:35.619Z,-2.58
2022-10-20T05:19:35.646Z,-2.57
2022-10-20T05:20:41.205Z,-2.54
2022-10-20T05:21:36.639Z,-2.53
2022-10-20T05:22:35.967Z,-2.50
2022-10-20T05:23:35.575Z,-2.50
2022-10-20T05:24:35.562Z,-2.50
2022-10-20T05:25:36.843Z,-2.51
2022-10-20T05:26:35.539Z,-2.54
2022-10-20T05:27:35.477Z,-2.54
2022-10-20T05:28:35.469Z,-2.54
2022-10-20T05:29:35.470Z,-2.53
2022-10-20T05:30:35.479Z,-2.53
2022-10-20T05:31:35.460Z,-2.53
2022-10-20T05:32:35.710Z,-2.53
2022-10-20T05:33:35.418Z,-2.56
2022-10-20T05:34:35.410Z,-2.56
2022-10-20T05:35:35.481Z,-2.53
2022-10-20T05:36:35.391Z,-2.50
2022-10-20T05:37:35.411Z,-2.50
2022-10-20T05:38:35.372Z,-2.50
2022-10-20T05:39:35.400Z,-2.50
2022-10-20T05:40:35.351Z,-2.47
2022-10-20T05:41:38.079Z,-2.47
2022-10-20T05:42:35.529Z,-2.47
2022-10-20T05:43:35.382Z,-2.45
2022-10-20T05:44:35.313Z,-2.45
2022-10-20T05:45:35.301Z,-2.45
2022-10-20T05:46:35.294Z,-2.45
2022-10-20T05:47:35.282Z,-2.47
2022-10-20T05:48:38.275Z,-2.43
2022-10-20T05:49:36.290Z,-2.40
2022-10-20T05:50:35.358Z,-2.38
2022-10-20T05:51:35.241Z,-2.38
2022-10-20T05:52:35.537Z,-2.38
2022-10-20T05:53:35.232Z,-2.38
2022-10-20T05:54:35.222Z,-2.35
2022-10-20T05:55:35.232Z,-2.33
2022-10-20T05:56:35.202Z,-2.28
2022-10-20T05:57:35.182Z,-2.24
2022-10-20T05:58:35.181Z,-2.23
2022-10-20T05:59:35.162Z,-2.20
2022-10-20T06:00:35.162Z,-2.16
2022-10-20T06:01:35.175Z,-2.14
2022-10-20T06:02:35.486Z,-2.08
2022-10-20T06:03:35.124Z,-2.06
2022-10-20T06:04:35.124Z,-2.03
2022-10-20T06:05:35.115Z,-2.00
2022-10-20T06:06:35.113Z,-1.96
2022-10-20T06:07:35.113Z,-1.95
2022-10-20T06:08:35.123Z,-1.90
2022-10-20T06:09:35.073Z,-1.87
2022-10-20T06:10:35.064Z,-1.84
2022-10-20T06:11:39.202Z,-1.80
2022-10-20T06:12:35.303Z,-1.80
2022-10-20T06:13:35.062Z,-1.78
2022-10-20T06:14:35.022Z,-1.75
2022-10-20T06:15:35.012Z,-1.70
2022-10-20T06:16:35.005Z,-1.67
2022-10-20T06:17:34.994Z,-1.63
2022-10-20T06:18:34.985Z,-1.59
2022-10-20T06:19:35.009Z,-1.57
2022-10-20T06:20:34.976Z,-1.54
2022-10-20T06:21:35.029Z,-1.51
2022-10-20T06:22:35.400Z,-1.46
2022-10-20T06:23:34.968Z,-1.42
2022-10-20T06:24:34.946Z,-1.43
2022-10-20T06:25:34.943Z,-1.41
2022-10-20T06:26:34.905Z,-1.41
2022-10-20T06:27:34.896Z,-1.35
2022-10-20T06:28:34.883Z,-1.31
2022-10-20T06:29:34.882Z,-1.25
2022-10-20T06:30:34.873Z,-1.17
2022-10-20T06:31:34.924Z,-1.09
2022-10-20T06:32:35.189Z,-1.00
2022-10-20T06:33:34.834Z,-0.95
2022-10-20T06:34:34.837Z,-0.92
2022-10-20T06:35:34.827Z,-0.92
2022-10-20T06:36:34.808Z,-0.91
2022-10-20T06:37:34.834Z,-0.91
2022-10-20T06:38:34.794Z,-0.87
2022-10-20T06:39:34.775Z,-0.87
2022-10-20T06:40:34.766Z,-0.83
2022-10-20T06:41:34.772Z,-0.84
2022-10-20T06:42:35.241Z,-0.84
2022-10-20T06:43:34.794Z,-0.81
2022-10-20T06:44:34.737Z,-0.80
2022-10-20T06:45:34.715Z,-0.75
2022-10-20T06:46:34.708Z,-0.70
2022-10-20T06:47:35.058Z,-0.69
2022-10-20T06:48:34.705Z,-0.68
2022-10-20T06:49:34.719Z,-0.66
2022-10-20T06:50:34.679Z,-0.63
2022-10-20T06:51:34.674Z,-0.60
2022-10-20T06:52:35.085Z,-0.59
2022-10-20T06:53:34.645Z,-0.55
2022-10-20T06:54:34.637Z,-0.54
2022-10-20T06:55:34.655Z,-0.51
2022-10-20T06:56:34.616Z,-0.52
2022-10-20T06:57:34.605Z,-0.52
2022-10-20T06:58:34.589Z,-0.48
2022-10-20T06:59:34.577Z,-0.45
2022-10-20T07:00:34.579Z,-0.42
2022-10-20T07:01:34.632Z,-0.39
2022-10-20T07:02:34.789Z,-0.36
2022-10-20T07:03:34.543Z,-0.31
2022-10-20T07:04:34.528Z,-0.31
2022-10-20T07:05:34.528Z,-0.31
2022-10-20T07:06:34.517Z,-0.29
2022-10-20T07:08:34.554Z,-0.29
2022-10-20T07:09:34.487Z,-0.27
2022-10-20T07:10:34.489Z,-0.23
2022-10-20T07:11:34.469Z,-0.22
2022-10-20T07:12:34.623Z,-0.18
2022-10-20T07:13:34.490Z,-0.15
2022-10-20T07:14:34.430Z,-0.12
2022-10-20T07:15:34.429Z,-0.08
2022-10-20T07:16:34.419Z,-0.06
2022-10-20T07:17:34.412Z,-0.05
2022-10-20T07:18:34.444Z,-0.01
2022-10-20T07:19:34.419Z,0.00
2022-10-20T07:20:34.380Z,0.02
2022-10-20T07:21:36.518Z,0.03
2022-10-20T07:22:34.720Z,0.06
2022-10-20T07:23:34.351Z,0.06
2022-10-20T07:24:34.332Z,0.06
2022-10-20T07:25:34.361Z,0.07
2022-10-20T07:26:34.319Z,0.07
2022-10-20T07:27:34.313Z,0.10
2022-10-20T07:28:34.300Z,0.12
2022-10-20T07:30:34.278Z,0.15
2022-10-20T07:31:34.312Z,0.16
2022-10-20T07:32:34.492Z,0.16
2022-10-20T07:33:34.252Z,0.21
2022-10-20T07:34:34.242Z,0.20
2022-10-20T07:35:34.234Z,0.21
2022-10-20T07:36:35.969Z,0.24
2022-10-20T07:37:34.503Z,0.25
2022-10-20T07:38:34.202Z,0.30
2022-10-20T07:39:34.190Z,0.31
2022-10-20T07:40:34.223Z,0.36
2022-10-20T07:41:34.172Z,0.36
2022-10-20T07:42:34.332Z,0.41
2022-10-20T07:43:34.194Z,0.42
2022-10-20T07:44:34.144Z,0.42
2022-10-20T07:45:34.134Z,0.46
2022-10-20T07:46:34.123Z,0.48
2022-10-20T07:47:38.229Z,0.51
2022-10-20T07:48:35.614Z,0.53
2022-10-20T07:49:49.460Z,0.57
2022-10-20T07:50:35.087Z,0.57
2022-10-20T07:51:34.074Z,0.58
2022-10-20T07:52:34.320Z,0.57
2022-10-20T07:53:34.053Z,0.60
2022-10-20T07:54:34.084Z,0.61
2022-10-20T07:55:38.747Z,0.60
2022-10-20T07:56:35.032Z,0.61
2022-10-20T07:57:34.016Z,0.62
2022-10-20T07:58:34.005Z,0.65
2022-10-20T07:59:34.005Z,0.67
2022-10-20T08:00:34.096Z,0.65
2022-10-20T08:01:34.042Z,0.68
2022-10-20T08:02:34.120Z,0.71
2022-10-20T08:03:33.964Z,0.72
2022-10-20T08:04:33.945Z,0.78
2022-10-20T08:05:33.936Z,0.79
2022-10-20T08:06:33.970Z,0.82
2022-10-20T08:07:33.923Z,0.88
2022-10-20T08:08:33.922Z,0.92
2022-10-20T08:09:34.011Z,0.96
2022-10-20T08:10:33.887Z,0.97
2022-10-20T08:11:33.876Z,0.97
2022-10-20T08:12:34.133Z,1.01
2022-10-20T08:13:33.856Z,1.03
2022-10-20T08:14:33.850Z,1.04
2022-10-20T08:15:34.681Z,1.06
2022-10-20T08:16:37.403Z,1.07
2022-10-20T08:17:33.816Z,1.07
2022-10-20T08:18:35.688Z,1.08
2022-10-20T08:19:38.972Z,1.12
2022-10-20T08:20:36.691Z,1.15
2022-10-20T08:21:33.778Z,1.19
2022-10-20T08:22:34.109Z,1.24
2022-10-20T08:23:33.749Z,1.26
2022-10-20T08:24:33.779Z,1.25
2022-10-20T08:25:33.734Z,1.32
2022-10-20T08:26:33.725Z,1.32
2022-10-20T08:27:33.718Z,1.34
2022-10-20T08:28:33.699Z,1.39
2022-10-20T08:29:33.689Z,1.42
2022-10-20T08:30:33.720Z,1.47
2022-10-20T08:31:33.681Z,1.52
2022-10-20T08:32:33.863Z,1.52
2022-10-20T08:33:33.659Z,1.54
2022-10-20T08:34:33.649Z,1.57
2022-10-20T08:35:33.639Z,1.58
2022-10-20T08:36:33.654Z,1.62
2022-10-20T08:37:33.848Z,1.65
2022-10-20T08:38:33.601Z,1.68
2022-10-20T08:39:33.589Z,1.73
2022-10-20T08:40:33.590Z,1.76
2022-10-20T08:41:43.487Z,1.76
2022-10-20T08:42:34.599Z,1.75
2022-10-20T08:43:33.552Z,1.75
2022-10-20T08:44:33.538Z,1.80
2022-10-20T08:45:38.077Z,1.82
2022-10-20T08:46:34.525Z,1.83
2022-10-20T08:47:33.801Z,1.90
2022-10-20T08:48:33.531Z,1.97
2022-10-20T08:49:33.501Z,2.04
2022-10-20T08:50:33.485Z,2.13
2022-10-20T08:51:33.473Z,2.17
2022-10-20T08:52:33.469Z,2.27
2022-10-20T08:53:33.452Z,2.30
2022-10-20T08:54:33.473Z,2.38
2022-10-20T08:55:33.431Z,2.44
2022-10-20T08:56:33.425Z,2.51
2022-10-20T08:57:36.073Z,2.55
2022-10-20T08:58:33.402Z,2.56
2022-10-20T08:59:33.393Z,2.53
2022-10-20T09:00:33.422Z,2.55
2022-10-20T09:01:33.437Z,2.61
2022-10-20T09:02:33.362Z,2.66
2022-10-20T09:03:33.355Z,2.69
2022-10-20T09:04:33.400Z,2.64
2022-10-20T09:05:33.335Z,2.59
2022-10-20T09:06:33.352Z,2.55
2022-10-20T09:07:33.512Z,2.58
2022-10-20T09:08:33.330Z,2.56
2022-10-20T09:09:33.293Z,2.64
2022-10-20T09:10:33.286Z,2.70
2022-10-20T09:11:33.275Z,2.70
2022-10-20T09:12:33.287Z,2.74
2022-10-20T09:13:33.255Z,2.77
2022-10-20T09:14:33.237Z,2.79
2022-10-20T09:15:33.244Z,2.87
2022-10-20T09:16:41.839Z,2.94
2022-10-20T09:17:34.547Z,2.98
2022-10-20T09:18:33.207Z,2.97
2022-10-20T09:19:33.195Z,2.94
2022-10-20T09:20:33.189Z,2.95
2022-10-20T09:21:33.178Z,3.03
2022-10-20T09:22:35.939Z,3.07
2022-10-20T09:23:41.113Z,3.15
2022-10-20T09:24:34.148Z,3.20
2022-10-20T09:25:33.147Z,3.23
2022-10-20T09:26:54.289Z,3.24
2022-10-20T09:27:34.419Z,3.21
2022-10-20T09:28:42.908Z,3.24
2022-10-20T09:29:34.119Z,3.30
2022-10-20T09:30:33.079Z,3.27
2022-10-20T09:31:33.080Z,3.20
2022-10-20T09:32:48.631Z,3.10
2022-10-20T09:33:34.049Z,3.12
2022-10-20T09:34:33.045Z,3.15
2022-10-20T09:35:33.178Z,3.20
2022-10-20T09:36:33.026Z,3.27
2022-10-20T09:37:33.018Z,3.34
2022-10-20T09:38:33.002Z,3.43
2022-10-20T09:39:32.999Z,3.50
2022-10-20T09:40:32.972Z,3.54
2022-10-20T09:41:33.008Z,3.57
2022-10-20T09:42:33.003Z,3.61
2022-10-20T09:43:32.950Z,3.61
2022-10-20T09:44:32.941Z,3.60
2022-10-20T09:45:32.931Z,3.61
2022-10-20T09:46:32.921Z,3.64
2022-10-20T09:47:32.940Z,3.67
2022-10-20T09:48:32.904Z,3.72
2022-10-20T09:49:32.893Z,3.79
2022-10-20T09:50:32.880Z,3.86
2022-10-20T09:51:32.873Z,3.89
2022-10-20T09:52:32.859Z,3.94
2022-10-20T09:53:32.890Z,4.03
2022-10-20T09:54:32.862Z,4.04
2022-10-20T09:55:32.834Z,4.07
2022-10-20T09:56:32.821Z,4.12
2022-10-20T09:57:32.812Z,4.16
2022-10-20T09:58:32.800Z,4.22
2022-10-20T09:59:32.828Z,4.25
2022-10-20T10:00:37.167Z,4.28
2022-10-20T10:01:33.809Z,4.32
2022-10-20T10:02:32.764Z,4.28
2022-10-20T10:03:32.754Z,4.28
2022-10-20T10:04:32.744Z,4.33
2022-10-20T10:05:32.767Z,4.37
2022-10-20T10:06:32.725Z,4.44
2022-10-20T10:07:32.714Z,4.51
2022-10-20T10:08:32.730Z,4.57
2022-10-20T10:09:32.695Z,4.61
2022-10-20T10:10:32.685Z,4.64
2022-10-20T10:11:32.718Z,4.67
2022-10-20T10:12:32.670Z,4.72
2022-10-20T10:13:32.654Z,4.75
2022-10-20T10:14:32.637Z,4.79
2022-10-20T10:15:32.639Z,4.80
2022-10-20T10:16:32.617Z,4.83
2022-10-20T10:17:32.647Z,4.83
2022-10-20T10:18:32.609Z,4.84
2022-10-20T10:19:32.594Z,4.88
2022-10-20T10:20:32.587Z,4.91
2022-10-20T10:21:32.576Z,4.96
2022-10-20T10:22:32.563Z,4.96
2022-10-20T10:23:32.578Z,4.95
2022-10-20T10:24:32.537Z,4.92
2022-10-20T10:25:32.539Z,4.88
2022-10-20T10:26:32.519Z,4.77
2022-10-20T10:27:32.508Z,4.79
2022-10-20T10:28:32.503Z,4.80
2022-10-20T10:29:32.529Z,4.86
2022-10-20T10:30:32.478Z,4.91
2022-10-20T10:31:32.484Z,4.96
2022-10-20T10:32:32.451Z,4.98
2022-10-20T10:33:32.449Z,5.01
2022-10-20T10:34:32.439Z,5.05
2022-10-20T10:35:32.471Z,5.05
2022-10-20T10:36:32.422Z,5.09
2022-10-20T10:37:34.936Z,5.14
2022-10-20T10:38:32.394Z,5.19
2022-10-20T10:39:32.391Z,5.16
2022-10-20T10:40:32.372Z,5.02
2022-10-20T10:41:32.391Z,4.98
2022-10-20T10:42:32.359Z,5.02
2022-10-20T10:43:32.355Z,5.04
2022-10-20T10:44:32.333Z,5.07
2022-10-20T10:45:32.323Z,5.10
2022-10-20T10:46:32.326Z,5.12
2022-10-20T10:47:34.267Z,5.14
2022-10-20T10:48:32.293Z,5.17
2022-10-20T10:49:32.285Z,5.23
2022-10-20T10:50:32.272Z,5.30
2022-10-20T10:51:32.264Z,5.34
2022-10-20T10:52:32.254Z,5.35
2022-10-20T10:53:32.273Z,5.30
2022-10-20T10:54:32.235Z,5.25
2022-10-20T10:55:47.882Z,5.22
2022-10-20T10:56:33.224Z,5.22
2022-10-20T10:57:32.217Z,5.22
2022-10-20T10:58:32.195Z,5.25
2022-10-20T10:59:32.204Z,5.27
2022-10-20T11:00:32.226Z,5.31
2022-10-20T11:01:32.163Z,5.34
2022-10-20T11:02:32.147Z,5.38
2022-10-20T11:03:36.215Z,5.32
2022-10-20T11:04:33.164Z,5.34
2022-10-20T11:05:32.129Z,5.34
2022-10-20T11:06:32.116Z,5.38
2022-10-20T11:07:32.108Z,5.40
2022-10-20T11:08:32.114Z,5.41
2022-10-20T11:09:32.088Z,5.40
2022-10-20T11:10:32.096Z,5.35
2022-10-20T11:11:32.058Z,5.32
2022-10-20T11:12:32.048Z,5.37
2022-10-20T11:13:32.036Z,5.40
2022-10-20T11:14:32.028Z,5.38
2022-10-20T11:15:32.027Z,5.31
2022-10-20T11:16:32.037Z,5.25
2022-10-20T11:17:31.998Z,5.19
2022-10-20T11:18:31.995Z,5.17
2022-10-20T11:19:32.053Z,5.19
2022-10-20T11:20:31.971Z,5.20
2022-10-20T11:21:31.958Z,5.28
2022-10-20T11:22:31.972Z,5.31
2022-10-20T11:24:31.928Z,5.40
2022-10-20T11:25:31.918Z,5.35
2022-10-20T11:26:31.909Z,5.31
2022-10-20T11:27:31.987Z,5.34
2022-10-20T11:28:31.923Z,5.35
2022-10-20T11:29:31.870Z,5.40
2022-10-20T11:30:31.871Z,5.43
2022-10-20T11:31:31.851Z,5.45
2022-10-20T11:32:31.891Z,5.41
2022-10-20T11:33:31.839Z,5.38
2022-10-20T11:34:31.863Z,5.37
2022-10-20T11:35:31.823Z,5.35
2022-10-20T11:36:31.810Z,5.32
2022-10-20T11:37:31.833Z,5.32
2022-10-20T11:38:31.784Z,5.34
2022-10-20T11:39:31.815Z,5.37
2022-10-20T11:40:31.812Z,5.40
2022-10-20T11:41:31.802Z,5.43
2022-10-20T11:42:31.752Z,5.45
2022-10-20T11:43:31.764Z,5.50
2022-10-20T11:44:31.735Z,5.53
2022-10-20T11:45:31.714Z,5.59
2022-10-20T11:46:31.731Z,5.64
2022-10-20T11:47:31.698Z,5.66
2022-10-20T11:48:31.687Z,5.68
2022-10-20T11:49:31.672Z,5.68
2022-10-20T11:50:31.663Z,5.71
2022-10-20T11:51:31.674Z,5.73
2022-10-20T11:52:31.674Z,5.74
2022-10-20T11:53:31.633Z,5.73
2022-10-20T11:54:31.633Z,5.74
2022-10-20T11:55:31.615Z,5.70
2022-10-20T11:56:31.604Z,5.71
2022-10-20T11:57:31.595Z,5.71
2022-10-20T11:58:31.608Z,5.73
2022-10-20T11:59:31.576Z,5.77
2022-10-20T12:00:31.565Z,5.74
2022-10-20T12:01:31.555Z,5.73
2022-10-20T12:02:31.546Z,5.75
2022-10-20T12:03:31.533Z,5.75
2022-10-20T12:04:31.551Z,5.68
2022-10-20T12:05:31.515Z,5.59
2022-10-20T12:06:31.507Z,5.53
2022-10-20T12:07:31.497Z,5.53
2022-10-20T12:08:31.561Z,5.50
2022-10-20T12:09:31.484Z,5.50
2022-10-20T12:10:31.579Z,5.56
2022-10-20T12:11:31.459Z,5.59
2022-10-20T12:12:31.448Z,5.66
2022-10-20T12:13:31.431Z,5.71
2022-10-20T12:14:31.422Z,5.77
2022-10-20T12:15:31.410Z,5.86
2022-10-20T12:16:31.529Z,5.95
2022-10-20T12:17:31.400Z,6.07
2022-10-20T12:18:31.382Z,6.09
2022-10-20T12:19:31.370Z,6.07
2022-10-20T12:20:31.372Z,6.11
2022-10-20T12:21:33.798Z,6.14
2022-10-20T12:22:31.392Z,6.19
2022-10-20T12:23:31.333Z,6.25
2022-10-20T12:24:31.332Z,6.29
2022-10-20T12:25:31.311Z,6.32
2022-10-20T12:26:31.302Z,6.36
2022-10-20T12:27:31.296Z,6.41
2022-10-20T12:28:31.373Z,6.44
2022-10-20T12:29:31.311Z,6.50
2022-10-20T12:30:31.262Z,6.53
2022-10-20T12:31:31.251Z,6.58
2022-10-20T12:32:31.242Z,6.48
2022-10-20T12:33:31.232Z,6.35
2022-10-20T12:34:31.253Z,6.32
2022-10-20T12:35:31.213Z,6.32
2022-10-20T12:36:31.212Z,6.32
2022-10-20T12:37:31.197Z,6.26
2022-10-20T12:38:31.183Z,6.22
2022-10-20T12:39:31.179Z,6.16
2022-10-20T12:40:31.194Z,6.11
2022-10-20T12:41:31.151Z,6.07
2022-10-20T12:42:31.145Z,6.07
2022-10-20T12:43:31.134Z,6.09
2022-10-20T12:44:31.116Z,6.11
2022-10-20T12:45:31.110Z,6.16
2022-10-20T12:46:31.127Z,6.21
2022-10-20T12:47:31.087Z,6.25
2022-10-20T12:48:31.080Z,6.29
2022-10-20T12:49:31.070Z,6.32
2022-10-20T12:50:31.056Z,6.35
2022-10-20T12:51:31.067Z,6.38
2022-10-20T12:52:31.070Z,6.41
2022-10-20T12:53:31.029Z,6.43
2022-10-20T12:54:31.021Z,6.44
2022-10-20T12:55:31.039Z,6.46
2022-10-20T12:56:31.008Z,6.46
2022-10-20T12:57:30.988Z,6.48
2022-10-20T12:58:31.009Z,6.38
2022-10-20T12:59:30.971Z,6.33
2022-10-20T13:00:30.997Z,6.29
2022-10-20T13:01:30.949Z,6.26
2022-10-20T13:02:30.938Z,6.21
2022-10-20T13:03:30.932Z,6.14
2022-10-20T13:04:30.952Z,6.07
2022-10-20T13:05:30.901Z,6.03
2022-10-20T13:06:30.900Z,5.98